^^
Meteo Knjazevac Station Historical Data
Daily Summary for April 4, 2021 Units:  Metric    English   Both
Daily Weekly Monthly Yearly Custom
  High: Low: Average:
Temperature: 29.4 °C 14.6 °C 22.1 °C
Dew Point: 18.7 °C 13.9 °C 15.9 °C
Humidity: 98% 44% 72%
Wind Speed: 16.1km/h 0km/h 5km/h
Wind Gust: 32.2km/h - -
Wind- - SW
Pressure: 1017.5 hPa 1013.4 hPa -
Precipitation: 0.25 mm    
Historical Graphs
 
 
Tabular Data for April 4, 2021
Time Temperature Dew Point Pressure Wind Wind Speed Wind Gust Humidity Rainfall Rate (Hourly) solar Conditions
00:00 18.2 °C 16.2 °C 1017.5 hPa NNE 1.6 km/h 11.3 km/h 88% 0.51 mm 0 W/m2
00:10 18.1 °C 16.4 °C 1017.2 hPa NNE 1.6 km/h 4.8 km/h 90% 0 mm 0 W/m2
00:20 18 °C 16.5 °C 1017.2 hPa SSW 3.2 km/h 6.4 km/h 91% 0 mm 0 W/m2
00:30 17.8 °C 16.3 °C 1017.2 hPa SSW 4.8 km/h 9.7 km/h 91% 0 mm 0 W/m2
00:40 17.5 °C 16.3 °C 1016.8 hPa SW 3.2 km/h 11.3 km/h 93% 0 mm 0 W/m2
00:50 17.4 °C 16.3 °C 1016.8 hPa SW 3.2 km/h 8 km/h 93% 0 mm 0 W/m2
01:00 17.3 °C 16.3 °C 1016.8 hPa SW 1.6 km/h 6.4 km/h 94% 0 mm 0 W/m2
01:10 17.2 °C 16.1 °C 1016.8 hPa Calm   8 km/h 93% 0 mm 0 W/m2
01:20 17.1 °C 15.9 °C 1016.8 hPa North 1.6 km/h 3.2 km/h 93% 0 mm 0 W/m2
01:30 16.9 °C 15.8 °C 1016.5 hPa Calm   3.2 km/h 93% 0 mm 0 W/m2
01:40 16.9 °C 15.9 °C 1016.8 hPa Calm   3.2 km/h 94% 0 mm 0 W/m2
01:50 16.8 °C 15.8 °C 1016.5 hPa ESE 3.2 km/h 8 km/h 94% 0 mm 0 W/m2
02:00 16.6 °C 15.6 °C 1016.5 hPa ESE 3.2 km/h 9.7 km/h 94% 0 mm 0 W/m2
02:10 16.6 °C 15.8 °C 1016.5 hPa Calm   3.2 km/h 95% 0 mm 0 W/m2
02:20 16.4 °C 15.6 °C 1016.5 hPa Calm   3.2 km/h 95% 0 mm 0 W/m2
02:30 16.4 °C 15.6 °C 1016.5 hPa Calm   3.2 km/h 95% 0 mm 0 W/m2
02:40 16.4 °C 15.6 °C 1016.5 hPa WSW 1.6 km/h 3.2 km/h 95% 0 mm 0 W/m2
02:50 16.3 °C 15.5 °C 1016.5 hPa SE 4.8 km/h 14.5 km/h 95% 0 mm 0 W/m2
03:00 16.4 °C 15.6 °C 1016.5 hPa SE 4.8 km/h 12.9 km/h 95% 0 mm 0 W/m2
03:10 16.3 °C 15.5 °C 1016.1 hPa SE 4.8 km/h 12.9 km/h 95% 0 mm 0 W/m2
03:20 16.3 °C 15.5 °C 1016.1 hPa SSE 3.2 km/h 8 km/h 95% 0 mm 0 W/m2
03:30 16.2 °C 15.3 °C 1016.5 hPa Calm   8 km/h 95% 0 mm 0 W/m2
03:40 16 °C 15.2 °C 1016.1 hPa Calm   8 km/h 95% 0 mm 0 W/m2
03:50 15.9 °C 15.1 °C 1016.1 hPa Calm   8 km/h 95% 0 mm 0 W/m2
04:00 15.8 °C 15 °C 1016.1 hPa South 1.6 km/h 8 km/h 95% 0 mm 0 W/m2
04:10 15.6 °C 14.8 °C 1016.1 hPa NW 1.6 km/h 3.2 km/h 95% 0 mm 0 W/m2
04:20 15.5 °C 14.9 °C 1016.1 hPa Calm   3.2 km/h 96% 0 mm 0 W/m2
04:30 15.4 °C 14.8 °C 1016.1 hPa Calm   3.2 km/h 96% 0 mm 0 W/m2
04:40 15.3 °C 14.7 °C 1016.1 hPa NNE 1.6 km/h 8 km/h 96% 0 mm 0 W/m2
04:50 15.3 °C 14.7 °C 1016.1 hPa South 3.2 km/h 8 km/h 96% 0 mm 0 W/m2
05:00 15.1 °C 14.4 °C 1016.1 hPa Calm   3.2 km/h 96% 0 mm 5 W/m2
05:10 15 °C 14.4 °C 1016.1 hPa South 1.6 km/h 6.4 km/h 96% 0 mm 11 W/m2
05:20 14.9 °C 14.3 °C 1016.5 hPa Calm   6.4 km/h 96% 0 mm 19 W/m2
05:30 14.9 °C 14.4 °C 1016.5 hPa SSE 1.6 km/h 9.7 km/h 97% 0 mm 28 W/m2
05:40 14.8 °C 14.2 °C 1016.5 hPa WNW 1.6 km/h 3.2 km/h 96% 0 mm 34 W/m2
05:50 14.6 °C 13.9 °C 1016.5 hPa Calm   9.7 km/h 96% 0 mm 39 W/m2
06:00 14.7 °C 14.4 °C 1016.5 hPa SSE 1.6 km/h 8 km/h 98% 0 mm 62 W/m2
06:10 14.7 °C 14.4 °C 1016.5 hPa SSW 1.6 km/h 8 km/h 98% 0 mm 96 W/m2
06:20 14.8 °C 14.5 °C 1016.5 hPa Calm   9.7 km/h 98% 0 mm 125 W/m2
06:30 14.7 °C 14.4 °C 1016.5 hPa Calm   4.8 km/h 98% 0 mm 157 W/m2
06:40 14.8 °C 14.5 °C 1016.8 hPa West 3.2 km/h 8 km/h 98% 0 mm 185 W/m2
06:50 15.2 °C 14.9 °C 1016.5 hPa Calm   8 km/h 98% 0 mm 217 W/m2
07:00 15.5 °C 15.2 °C 1016.5 hPa SE 3.2 km/h 9.7 km/h 98% 0 mm 249 W/m2
07:10 15.8 °C 15.6 °C 1016.8 hPa SE 3.2 km/h 9.7 km/h 98% 0 mm 280 W/m2
07:20 16.2 °C 15.9 °C 1016.8 hPa SE 8 km/h 11.3 km/h 98% 0 mm 319 W/m2
07:30 16.7 °C 15.9 °C 1016.8 hPa ESE 3.2 km/h 11.3 km/h 95% 0 mm 347 W/m2
07:40 17.1 °C 16.1 °C 1016.8 hPa ESE 3.2 km/h 11.3 km/h 94% 0 mm 383 W/m2
07:50 17.5 °C 16.3 °C 1016.8 hPa SE 3.2 km/h 12.9 km/h 93% 0 mm 421 W/m2
08:00 17.9 °C 16.3 °C 1016.8 hPa SE 4.8 km/h 11.3 km/h 90% 0 mm 458 W/m2
08:10 18.4 °C 16.7 °C 1016.8 hPa SE 4.8 km/h 11.3 km/h 90% 0 mm 502 W/m2
08:20 18.8 °C 16.8 °C 1016.8 hPa SE 3.2 km/h 11.3 km/h 88% 0 mm 536 W/m2
08:30 19.3 °C 16.7 °C 1016.5 hPa ESE 4.8 km/h 11.3 km/h 85% 0 mm 567 W/m2
08:40 19.7 °C 16.7 °C 1016.8 hPa SE 3.2 km/h 11.3 km/h 83% 0 mm 605 W/m2
08:50 20.1 °C 17.1 °C 1016.5 hPa South 3.2 km/h 8 km/h 83% 0 mm 633 W/m2
09:00 21.2 °C 17.9 °C 1016.5 hPa SSE 4.8 km/h 14.5 km/h 82% 0.25 mm 660 W/m2
09:10 22.2 °C 17.4 °C 1016.5 hPa SE 3.2 km/h 14.5 km/h 74% 0 mm 687 W/m2
09:20 23.2 °C 18.7 °C 1016.1 hPa South 3.2 km/h 9.7 km/h 76% 0 mm 636 W/m2
09:30 23.7 °C 18.3 °C 1016.1 hPa Calm   11.3 km/h 72% 0 mm 692 W/m2
09:40 24 °C 17.9 °C 1016.1 hPa SW 3.2 km/h 9.7 km/h 69% 0 mm 517 W/m2
09:50 24.1 °C 18.1 °C 1016.1 hPa West 4.8 km/h 11.3 km/h 69% 0 mm 729 W/m2
10:00 24.4 °C 18.1 °C 1016.1 hPa WNW 3.2 km/h 9.7 km/h 68% 0 mm 805 W/m2
10:10 25.2 °C 18.6 °C 1016.1 hPa West 8 km/h 12.9 km/h 67% 0 mm 825 W/m2
10:20 25.2 °C 17.9 °C 1015.8 hPa WNW 8 km/h 17.7 km/h 64% 0 mm 643 W/m2
10:30 25.4 °C 17.8 °C 1015.8 hPa West 11.3 km/h 19.3 km/h 63% 0 mm 863 W/m2
10:40 25.7 °C 17.3 °C 1015.8 hPa West 9.7 km/h 19.3 km/h 60% 0 mm 880 W/m2
10:50 25.9 °C 17 °C 1015.8 hPa West 16.1 km/h 24.1 km/h 58% 0 mm 695 W/m2
11:00 26.2 °C 16.7 °C 1015.5 hPa West 12.9 km/h 24.1 km/h 56% 0 mm 910 W/m2
11:10 26.2 °C 16.7 °C 1015.5 hPa West 12.9 km/h 22.5 km/h 56% 0 mm 923 W/m2
11:20 26.4 °C 16.1 °C 1015.5 hPa West 9.7 km/h 22.5 km/h 53% 0 mm 171 W/m2
11:30 26.6 °C 15.6 °C 1015.5 hPa West 11.3 km/h 24.1 km/h 51% 0 mm 944 W/m2
11:40 26.6 °C 15.6 °C 1015.5 hPa West 14.5 km/h 27.4 km/h 51% 0 mm 953 W/m2
11:50 26.8 °C 16.4 °C 1015.1 hPa WSW 11.3 km/h 27.4 km/h 53% 0 mm 960 W/m2
12:00 26.8 °C 16.4 °C 1015.1 hPa WSW 11.3 km/h 32.2 km/h 53% 0 mm 966 W/m2
12:10 26.9 °C 16.2 °C 1015.1 hPa WSW 14.5 km/h 27.4 km/h 52% 0 mm 413 W/m2
12:20 27 °C 16.3 °C 1015.1 hPa West 14.5 km/h 29 km/h 52% 0 mm 371 W/m2
12:30 27.2 °C 16.8 °C 1014.8 hPa WSW 9.7 km/h 24.1 km/h 53% 0 mm 462 W/m2
12:40 27.5 °C 16.8 °C 1014.8 hPa West 14.5 km/h 22.5 km/h 52% 0 mm 960 W/m2
12:50 27.6 °C 16.6 °C 1014.8 hPa WSW 14.5 km/h 24.1 km/h 51% 0 mm 483 W/m2
13:00 27.7 °C 16.3 °C 1014.8 hPa WSW 12.9 km/h 24.1 km/h 50% 0 mm 784 W/m2
13:10 27.8 °C 16.4 °C 1014.4 hPa WSW 9.7 km/h 25.7 km/h 50% 0 mm 462 W/m2
13:20 27.7 °C 16 °C 1014.4 hPa West 11.3 km/h 27.4 km/h 49% 0 mm 957 W/m2
13:30 28.1 °C 15.7 °C 1014.4 hPa WSW 12.9 km/h 29 km/h 47% 0 mm 949 W/m2
13:40 28.2 °C 15.8 °C 1014.4 hPa WSW 12.9 km/h 25.7 km/h 47% 0 mm 940 W/m2
13:50 28.3 °C 15.9 °C 1014.4 hPa WSW 9.7 km/h 27.4 km/h 47% 0 mm 930 W/m2
14:00 28.4 °C 16 °C 1014.1 hPa West 11.3 km/h 25.7 km/h 47% 0 mm 918 W/m2
14:10 28.4 °C 16 °C 1014.1 hPa West 14.5 km/h 24.1 km/h 47% 0 mm 904 W/m2
14:20 28.6 °C 15.8 °C 1014.1 hPa West 12.9 km/h 27.4 km/h 46% 0 mm 889 W/m2
14:30 28.6 °C 15.4 °C 1014.1 hPa West 14.5 km/h 27.4 km/h 45% 0 mm 873 W/m2
14:40 28.8 °C 16.3 °C 1014.1 hPa West 11.3 km/h 24.1 km/h 47% 0 mm 856 W/m2
14:50 28.9 °C 15.8 °C 1014.1 hPa West 14.5 km/h 24.1 km/h 45% 0 mm 837 W/m2
15:00 29 °C 15.9 °C 1014.1 hPa West 8 km/h 24.1 km/h 45% 0 mm 817 W/m2
15:10 29.1 °C 16.3 °C 1014.1 hPa West 9.7 km/h 20.9 km/h 46% 0 mm 796 W/m2
15:20 29.1 °C 15.9 °C 1013.8 hPa West 11.3 km/h 20.9 km/h 45% 0 mm 774 W/m2
15:30 29.4 °C 16.6 °C 1013.8 hPa West 9.7 km/h 19.3 km/h 46% 0 mm 751 W/m2
15:40 29.4 °C 15.9 °C 1013.8 hPa West 12.9 km/h 20.9 km/h 44% 0 mm 727 W/m2
15:50 29 °C 15.9 °C 1013.8 hPa West 8 km/h 19.3 km/h 45% 0 mm 151 W/m2
16:00 28.6 °C 15.5 °C 1014.1 hPa WNW 9.7 km/h 16.1 km/h 45% 0 mm 236 W/m2
16:10 28.7 °C 15.6 °C 1013.8 hPa WNW 9.7 km/h 19.3 km/h 45% 0 mm 649 W/m2
16:20 28.7 °C 15.6 °C 1013.8 hPa WNW 8 km/h 20.9 km/h 45% 0 mm 211 W/m2
16:30 28.6 °C 15.5 °C 1013.8 hPa West 11.3 km/h 19.3 km/h 45% 0 mm 436 W/m2
16:40 28.4 °C 15.7 °C 1013.8 hPa West 3.2 km/h 19.3 km/h 46% 0 mm 171 W/m2
16:50 28 °C 14.9 °C 1013.8 hPa WNW 8 km/h 16.1 km/h 45% 0 mm 195 W/m2
17:00 27.9 °C 15.8 °C 1013.8 hPa West 4.8 km/h 11.3 km/h 48% 0 mm 294 W/m2
17:10 27.7 °C 16.1 °C 1013.8 hPa West 4.8 km/h 12.9 km/h 49% 0 mm 205 W/m2
17:20 27.5 °C 15.8 °C 1013.8 hPa West 8 km/h 14.5 km/h 49% 0 mm 269 W/m2
17:30 27.5 °C 16.2 °C 1013.8 hPa WSW 3.2 km/h 12.9 km/h 50% 0 mm 272 W/m2
17:40 27.6 °C 16.2 °C 1013.8 hPa West 8 km/h 14.5 km/h 50% 0 mm 385 W/m2
17:50 28 °C 16.6 °C 1013.4 hPa West 8 km/h 16.1 km/h 50% 0 mm 354 W/m2
18:00 28.2 °C 16.4 °C 1013.4 hPa West 9.7 km/h 16.1 km/h 49% 0 mm 292 W/m2
18:10 28 °C 15.9 °C 1013.4 hPa West 8 km/h 16.1 km/h 48% 0 mm 274 W/m2
18:20 27.8 °C 15.8 °C 1013.4 hPa West 4.8 km/h 14.5 km/h 48% 0 mm 264 W/m2
18:30 27.9 °C 16.6 °C 1013.4 hPa West 4.8 km/h 11.3 km/h 50% 0 mm 203 W/m2
18:40 27.9 °C 16.5 °C 1013.4 hPa West 3.2 km/h 9.7 km/h 50% 0 mm 174 W/m2
18:50 27.9 °C 16.8 °C 1013.8 hPa WNW 1.6 km/h 8 km/h 51% 0 mm 144 W/m2
19:00 27.8 °C 17.1 °C 1013.8 hPa WNW 1.6 km/h 4.8 km/h 52% 0 mm 101 W/m2
19:10 27.6 °C 16.6 °C 1013.4 hPa NW 3.2 km/h 6.4 km/h 51% 0 mm 89 W/m2
19:20 27.4 °C 17 °C 1013.4 hPa West 1.6 km/h 6.4 km/h 53% 0 mm 74 W/m2
19:30 27.2 °C 17.9 °C 1013.8 hPa West 1.6 km/h 4.8 km/h 57% 0 mm 59 W/m2
19:40 26.8 °C 17.9 °C 1013.4 hPa WSW 1.6 km/h 3.2 km/h 58% 0 mm 38 W/m2
19:50 26.5 °C 17.8 °C 1013.4 hPa SSW 1.6 km/h 3.2 km/h 59% 0 mm 22 W/m2
20:00 25.9 °C 17.6 °C 1013.4 hPa SSW 1.6 km/h 3.2 km/h 60% 0 mm 13 W/m2
20:10 25.2 °C 17.4 °C 1013.4 hPa SSW 3.2 km/h 4.8 km/h 62% 0 mm 6 W/m2
20:20 24.6 °C 17.6 °C 1013.4 hPa SW 3.2 km/h 6.4 km/h 65% 0 mm 0 W/m2
20:30 23.9 °C 16.9 °C 1013.4 hPa WSW 3.2 km/h 9.7 km/h 65% 0 mm 0 W/m2
20:40 23.2 °C 17 °C 1013.8 hPa West 3.2 km/h 8 km/h 68% 0 mm 0 W/m2
20:50 22.8 °C 16.6 °C 1013.8 hPa WSW 1.6 km/h 9.7 km/h 68% 0 mm 0 W/m2
21:00 22.4 °C 15.9 °C 1013.8 hPa SSW 3.2 km/h 6.4 km/h 67% 0 mm 0 W/m2
21:10 22 °C 15.8 °C 1013.8 hPa Calm   3.2 km/h 68% 0 mm 0 W/m2
21:20 21.6 °C 15.4 °C 1013.8 hPa WSW 1.6 km/h 3.2 km/h 68% 0 mm 0 W/m2
21:30 21.2 °C 15.3 °C 1014.1 hPa West 1.6 km/h 3.2 km/h 69% 0 mm 0 W/m2
21:40 20.8 °C 14.9 °C 1014.1 hPa South 1.6 km/h 3.2 km/h 69% 0 mm 0 W/m2
21:50 20.3 °C 14.7 °C 1014.1 hPa SE 1.6 km/h 6.4 km/h 70% 0 mm 0 W/m2
22:00 19.9 °C 14.7 °C 1014.1 hPa West 1.6 km/h 4.8 km/h 72% 0 mm 0 W/m2
22:10 19.6 °C 14.4 °C 1013.8 hPa WSW 3.2 km/h 8 km/h 72% 0 mm 0 W/m2
22:20 19.2 °C 14.2 °C 1013.8 hPa Calm   8 km/h 73% 0 mm 0 W/m2
22:30 19 °C 14.4 °C 1013.8 hPa Calm   1.6 km/h 75% 0 mm 0 W/m2
22:40 18.7 °C 15 °C 1013.8 hPa Calm   3.2 km/h 79% 0 mm 0 W/m2
22:50 18.4 °C 14.9 °C 1013.8 hPa West 1.6 km/h 3.2 km/h 80% 0 mm 0 W/m2
23:00 18 °C 14.5 °C 1013.8 hPa WSW 1.6 km/h 3.2 km/h 80% 0 mm 0 W/m2
23:10 17.8 °C 14.5 °C 1013.8 hPa Calm   3.2 km/h 81% 0 mm 0 W/m2
23:20 17.6 °C 14.3 °C 1013.8 hPa West 1.6 km/h 4.8 km/h 81% 0 mm 0 W/m2
23:30 17.4 °C 14.5 °C 1013.8 hPa NW 1.6 km/h 4.8 km/h 83% 0 mm 0 W/m2
23:40 17.1 °C 14.4 °C 1013.8 hPa West 1.6 km/h 6.4 km/h 84% 0 mm 0 W/m2
23:50 16.8 °C 14.1 °C 1013.8 hPa WNW 1.6 km/h 3.2 km/h 84% 0 mm 0 W/m2
Knjazevac, Serbia
Compliments of Weather Underground - 2 mb